Time;durP1;ratioP1;P1;durP2;ratioP2;P2;SDS_P1;SDS_P2;PMS_P1;PMS_P2;Temp;Humidity;BMP_temperature;BMP_pressure;BME280_temperature;BME280_humidity;BME280_pressure;Samples;Min_cycle;Max_cycle;Signal;HPM_P1;HPM_P2
2021/11/20 00:00:18;;;;;;;2.42;1.67;;;17.90;64.60;;;;;;5051296;28;20178;-65
2021/11/20 00:02:43;;;;;;;4.18;1.65;;;17.90;64.60;;;;;;5051932;28;20246;-64
2021/11/20 00:05:10;;;;;;;2.00;1.45;;;17.90;64.70;;;;;;5051943;28;20171;-64
2021/11/20 00:07:35;;;;;;;1.73;1.42;;;17.90;64.70;;;;;;5051073;28;20197;-64
2021/11/20 00:10:01;;;;;;;1.45;1.35;;;17.90;64.70;;;;;;5051825;28;20598;-66
2021/11/20 00:12:29;;;;;;;1.52;1.40;;;17.90;64.70;;;;;;5051848;28;20233;-68
2021/11/20 00:14:55;;;;;;;1.50;1.40;;;17.90;64.70;;;;;;5051173;28;20537;-67
2021/11/20 00:17:21;;;;;;;1.98;1.40;;;17.90;65.50;;;;;;5051752;28;20186;-66
2021/11/20 00:19:46;;;;;;;1.33;1.23;;;17.90;64.70;;;;;;5050412;28;20175;-66
2021/11/20 00:22:17;;;;;;;1.98;1.50;;;17.90;64.70;;;;;;5051205;28;20210;-66
2021/11/20 00:24:45;;;;;;;1.70;1.60;;;17.90;64.80;;;;;;5051401;28;20586;-66
2021/11/20 00:27:16;;;;;;;1.67;1.58;;;17.90;64.70;;;;;;5051875;28;20244;-65
2021/11/20 00:32:13;;;;;;;1.45;1.35;;;17.80;64.70;;;;;;5051786;28;20164;-64
2021/11/20 00:34:39;;;;;;;2.10;1.60;;;17.80;64.60;;;;;;5049507;28;20183;-64
2021/11/20 00:37:04;;;;;;;1.73;1.17;;;17.80;64.60;;;;;;5051668;28;20552;-64
2021/11/20 00:39:31;;;;;;;1.60;1.50;;;17.80;64.60;;;;;;5051181;28;20731;-64
2021/11/20 00:41:56;;;;;;;2.13;1.40;;;17.80;64.70;;;;;;5050876;28;20684;-65
2021/11/20 00:44:22;;;;;;;2.35;1.17;;;17.80;64.70;;;;;;5051648;28;20207;-63
2021/11/20 00:46:48;;;;;;;1.60;1.40;;;17.80;64.70;;;;;;5051472;28;20231;-64
2021/11/20 00:49:14;;;;;;;1.50;1.40;;;17.80;64.80;;;;;;5050777;28;20268;-66
2021/11/20 00:51:39;;;;;;;1.60;1.48;;;17.80;64.70;;;;;;5051246;28;20649;-64
2021/11/20 00:54:05;;;;;;;1.88;1.50;;;17.80;64.70;;;;;;5051531;28;20625;-65
2021/11/20 00:56:30;;;;;;;1.40;1.30;;;17.80;64.70;;;;;;5050549;28;20171;-64
2021/11/20 00:58:56;;;;;;;2.05;1.40;;;17.80;64.90;;;;;;5051639;28;20542;-64
2021/11/20 01:01:26;;;;;;;1.67;1.33;;;17.80;64.80;;;;;;5051566;28;20174;-63
2021/11/20 01:03:52;;;;;;;1.73;1.35;;;17.80;64.80;;;;;;5050486;28;20183;-64
2021/11/20 01:06:18;;;;;;;1.83;1.50;;;17.70;64.80;;;;;;5051435;28;20168;-63
2021/11/20 01:08:45;;;;;;;2.35;1.83;;;17.70;64.80;;;;;;5050879;28;20280;-64
2021/11/20 01:11:26;;;;;;;2.30;1.50;;;17.80;64.70;;;;;;5050835;28;20179;-67
2021/11/20 01:13:52;;;;;;;1.20;1.10;;;17.70;64.80;;;;;;5051203;28;20172;-69
2021/11/20 01:16:18;;;;;;;2.22;1.33;;;17.70;65.70;;;;;;5051443;28;20175;-65
2021/11/20 01:18:43;;;;;;;1.42;1.33;;;17.70;64.80;;;;;;5050249;28;20644;-65
2021/11/20 01:21:09;;;;;;;2.03;1.50;;;17.70;64.80;;;;;;5051065;28;20171;-66
2021/11/20 01:23:34;;;;;;;1.23;1.15;;;17.70;64.90;;;;;;5050477;28;20237;-65
2021/11/20 01:26:00;;;;;;;2.13;1.50;;;17.70;65.00;;;;;;5051348;28;20171;-67
2021/11/20 01:28:27;;;;;;;1.35;1.20;;;17.70;64.90;;;;;;5051298;28;20214;-64
2021/11/20 01:30:52;;;;;;;3.80;1.35;;;17.70;64.90;;;;;;5052468;28;20249;-64
2021/11/20 01:33:18;;;;;;;2.10;1.75;;;17.70;64.80;;;;;;5054699;28;20641;-63
2021/11/20 01:35:44;;;;;;;2.20;1.45;;;17.70;65.00;;;;;;5054720;28;20184;-64
2021/11/20 01:38:09;;;;;;;1.50;1.40;;;17.70;64.90;;;;;;5053922;28;20229;-65
2021/11/20 01:40:37;;;;;;;1.48;1.38;;;17.70;64.90;;;;;;5054516;28;20191;-65
2021/11/20 01:43:04;;;;;;;1.50;1.40;;;17.70;64.90;;;;;;5054726;28;20175;-65
2021/11/20 01:45:35;;;;;;;2.05;1.42;;;17.70;64.90;;;;;;5053358;28;20685;-65
2021/11/20 01:48:38;;;;;;;1.75;1.42;;;17.60;65.00;;;;;;5054394;28;20179;-66
2021/11/20 01:51:32;;;;;;;2.80;1.50;;;17.70;65.10;;;;;;5054598;28;20270;-65
2021/11/20 01:54:08;;;;;;;1.83;1.63;;;17.70;65.00;;;;;;5050569;28;20179;-67
2021/11/20 01:56:41;;;;;;;1.88;1.55;;;17.60;64.90;;;;;;5052743;28;20618;-65
2021/11/20 01:59:31;;;;;;;1.80;1.65;;;17.60;64.70;;;;;;5052713;28;20270;-64
2021/11/20 02:02:10;;;;;;;1.55;1.45;;;17.60;64.80;;;;;;5052848;28;20202;-64
2021/11/20 02:04:55;;;;;;;1.63;1.40;;;17.60;64.80;;;;;;5052781;28;20174;-63
2021/11/20 02:07:37;;;;;;;1.85;1.50;;;17.60;64.90;;;;;;5053027;28;20208;-64
2021/11/20 02:10:13;;;;;;;1.67;1.50;;;17.60;64.80;;;;;;5054112;28;20325;-64
2021/11/20 02:12:49;;;;;;;1.80;1.55;;;17.60;64.80;;;;;;5052402;28;20207;-65
2021/11/20 02:15:20;;;;;;;1.45;1.35;;;17.60;64.80;;;;;;5053928;28;20171;-66
2021/11/20 02:17:49;;;;;;;2.03;1.83;;;17.60;64.80;;;;;;5053831;28;20244;-65
2021/11/20 02:20:18;;;;;;;2.05;1.60;;;17.60;64.90;;;;;;5053293;28;20262;-64
2021/11/20 02:22:43;;;;;;;1.58;1.38;;;17.60;65.00;;;;;;5052203;28;20259;-64
2021/11/20 02:25:11;;;;;;;1.75;1.50;;;17.60;64.90;;;;;;5053438;28;20211;-64
2021/11/20 02:27:39;;;;;;;2.13;1.90;;;17.50;64.80;;;;;;5052706;28;20634;-65
2021/11/20 02:30:12;;;;;;;2.13;1.63;;;17.60;64.80;;;;;;5053609;28;20609;-64
2021/11/20 02:32:37;;;;;;;1.88;1.65;;;17.60;65.00;;;;;;5053611;28;20171;-63
2021/11/20 02:35:03;;;;;;;1.65;1.55;;;17.60;64.90;;;;;;5052957;28;20183;-64
2021/11/20 02:37:29;;;;;;;2.58;1.83;;;17.60;64.90;;;;;;5053402;28;20227;-63
2021/11/20 02:39:54;;;;;;;2.80;1.65;;;17.50;64.80;;;;;;5053591;28;20171;-66
2021/11/20 02:42:21;;;;;;;1.65;1.55;;;17.50;64.90;;;;;;5051690;28;20283;-63
2021/11/20 02:44:46;;;;;;;2.25;1.98;;;17.50;64.80;;;;;;5053270;28;20228;-65
2021/11/20 02:47:21;;;;;;;2.28;1.80;;;17.60;64.80;;;;;;5053355;28;20238;-64
2021/11/20 02:49:47;;;;;;;1.77;1.67;;;17.50;64.90;;;;;;5052370;28;20221;-66
2021/11/20 02:52:14;;;;;;;1.98;1.88;;;17.50;64.80;;;;;;5053290;28;20212;-66
2021/11/20 02:54:39;;;;;;;1.50;1.40;;;17.50;64.90;;;;;;5051690;28;20187;-67
2021/11/20 02:57:23;;;;;;;1.77;1.40;;;17.50;64.80;;;;;;5052437;28;20337;-66
2021/11/20 02:59:48;;;;;;;1.45;1.35;;;17.50;64.80;;;;;;5051790;28;20745;-66
2021/11/20 03:02:14;;;;;;;1.50;1.40;;;17.50;64.90;;;;;;5052452;28;20535;-64
2021/11/20 03:04:40;;;;;;;1.95;1.80;;;17.50;64.80;;;;;;5052754;28;20183;-64
2021/11/20 03:07:06;;;;;;;1.55;1.20;;;17.50;64.80;;;;;;5052882;28;20558;-65
2021/11/20 03:09:32;;;;;;;2.20;1.77;;;17.50;64.70;;;;;;5051791;28;20221;-66
2021/11/20 03:11:58;;;;;;;1.90;1.70;;;17.50;64.80;;;;;;5052923;28;20175;-68
2021/11/20 03:14:24;;;;;;;1.63;1.52;;;17.50;64.60;;;;;;5052930;28;20175;-65
2021/11/20 03:16:55;;;;;;;2.08;1.77;;;17.50;64.80;;;;;;5051796;28;20634;-67
2021/11/20 03:19:21;;;;;;;1.70;1.60;;;17.50;64.90;;;;;;5052888;28;20183;-65
2021/11/20 03:21:49;;;;;;;2.00;1.77;;;17.50;64.70;;;;;;5052443;28;20224;-67
2021/11/20 03:24:16;;;;;;;1.95;1.83;;;17.50;64.70;;;;;;5052246;28;20179;-64
2021/11/20 03:26:44;;;;;;;2.35;2.00;;;17.40;64.60;;;;;;5052145;28;20179;-64
2021/11/20 03:29:10;;;;;;;2.85;1.60;;;17.50;64.50;;;;;;5052972;28;20218;-63
2021/11/20 03:31:35;;;;;;;1.95;1.75;;;17.40;64.50;;;;;;5051437;28;20235;-63
2021/11/20 03:34:01;;;;;;;2.33;1.73;;;17.40;64.50;;;;;;5052571;28;20602;-66
2021/11/20 03:36:26;;;;;;;2.03;1.83;;;17.40;64.60;;;;;;5052696;28;20580;-65
2021/11/20 03:38:52;;;;;;;2.35;2.08;;;17.40;64.70;;;;;;5051883;28;20174;-67
2021/11/20 03:41:17;;;;;;;2.10;2.00;;;17.40;64.50;;;;;;5052888;28;20180;-66
2021/11/20 03:43:43;;;;;;;2.35;2.15;;;17.40;64.40;;;;;;5052279;28;20174;-64
2021/11/20 03:46:08;;;;;;;2.20;2.00;;;17.40;64.40;;;;;;5051329;28;20250;-64
2021/11/20 03:48:34;;;;;;;2.33;1.75;;;17.40;64.40;;;;;;5052027;28;20276;-63
2021/11/20 03:51:00;;;;;;;2.00;1.80;;;17.40;64.40;;;;;;5051993;28;20175;-65
2021/11/20 03:53:25;;;;;;;1.95;1.80;;;17.40;64.30;;;;;;5051353;28;20656;-65
2021/11/20 03:55:51;;;;;;;2.03;1.90;;;17.40;64.40;;;;;;5052007;28;20175;-67
2021/11/20 03:58:18;;;;;;;1.88;1.77;;;17.40;64.30;;;;;;5051571;28;20175;-64
2021/11/20 04:00:58;;;;;;;1.88;1.77;;;17.40;64.30;;;;;;5051872;28;20262;-65
2021/11/20 04:03:23;;;;;;;2.10;2.00;;;17.40;64.30;;;;;;5051932;28;20171;-64
2021/11/20 04:05:50;;;;;;;2.35;2.15;;;17.40;64.20;;;;;;5051079;28;20252;-65
2021/11/20 04:08:16;;;;;;;2.90;2.00;;;17.40;64.20;;;;;;5052087;28;20187;-64
2021/11/20 04:10:41;;;;;;;1.95;1.85;;;17.40;64.20;;;;;;5051783;28;20262;-66
2021/11/20 04:13:07;;;;;;;2.40;2.20;;;17.30;64.10;;;;;;5051265;28;20259;-67
2021/11/20 04:15:32;;;;;;;2.10;1.92;;;17.40;64.20;;;;;;5051769;28;20174;-67
2021/11/20 04:17:58;;;;;;;2.17;1.98;;;17.40;64.10;;;;;;5051784;28;20167;-67
2021/11/20 04:20:23;;;;;;;2.30;2.10;;;17.30;64.00;;;;;;5051206;28;20168;-65
2021/11/20 04:22:49;;;;;;;2.28;2.08;;;17.30;64.00;;;;;;5051712;28;20179;-65
2021/11/20 04:25:15;;;;;;;2.40;2.20;;;17.30;63.90;;;;;;5051938;28;20578;-65
2021/11/20 04:27:41;;;;;;;2.72;2.53;;;17.30;63.90;;;;;;5050860;28;20175;-64
2021/11/20 04:30:08;;;;;;;2.63;2.42;;;17.30;63.90;;;;;;5051665;28;20215;-63
2021/11/20 04:32:33;;;;;;;2.53;2.33;;;17.30;63.90;;;;;;5051437;28;20232;-62
2021/11/20 04:35:02;;;;;;;2.10;2.00;;;17.30;63.80;;;;;;5051173;28;20175;-64
2021/11/20 04:37:27;;;;;;;2.45;2.25;;;17.30;63.80;;;;;;5051818;28;20263;-63
2021/11/20 04:39:53;;;;;;;2.42;2.22;;;17.30;63.80;;;;;;5051240;28;20203;-65
2021/11/20 04:42:21;;;;;;;1.85;1.75;;;17.30;63.80;;;;;;5051065;28;20209;-64
2021/11/20 04:44:46;;;;;;;2.13;2.03;;;17.30;63.70;;;;;;5051206;28;20183;-65
2021/11/20 04:47:12;;;;;;;3.45;2.40;;;17.30;63.70;;;;;;5051395;28;20598;-65
2021/11/20 04:49:37;;;;;;;2.38;2.17;;;17.30;63.60;;;;;;5050411;28;20237;-64
2021/11/20 04:52:07;;;;;;;2.63;2.42;;;17.30;63.60;;;;;;5051606;28;20660;-66
2021/11/20 04:54:35;;;;;;;2.70;2.50;;;17.30;63.60;;;;;;5050958;28;20645;-65
2021/11/20 04:57:00;;;;;;;2.58;2.30;;;17.30;63.60;;;;;;5052143;28;20176;-66
2021/11/20 04:59:26;;;;;;;2.25;2.15;;;17.30;63.60;;;;;;5051743;28;20193;-64
2021/11/20 05:01:51;;;;;;;2.63;2.42;;;17.30;63.60;;;;;;5051304;28;20657;-66
2021/11/20 05:04:17;;;;;;;2.42;2.22;;;17.30;63.60;;;;;;5051637;28;20180;-63
2021/11/20 05:06:42;;;;;;;2.65;2.45;;;17.20;63.50;;;;;;5055057;28;20252;-64
2021/11/20 05:09:08;;;;;;;3.20;2.38;;;17.30;63.60;;;;;;5054697;28;20214;-65
2021/11/20 05:11:33;;;;;;;2.17;2.08;;;17.30;63.60;;;;;;5055225;28;20167;-66
2021/11/20 05:13:59;;;;;;;2.72;2.53;;;17.20;63.50;;;;;;5055428;28;20182;-67
2021/11/20 05:16:25;;;;;;;2.60;2.40;;;17.20;63.50;;;;;;5054501;28;20182;-65
2021/11/20 05:18:50;;;;;;;3.10;2.40;;;17.30;63.50;;;;;;5054813;28;20258;-66
2021/11/20 05:21:20;;;;;;;2.78;2.58;;;17.20;63.50;;;;;;5055263;28;20171;-65
2021/11/20 05:23:46;;;;;;;2.80;2.60;;;17.30;63.50;;;;;;5054176;28;20345;-66
2021/11/20 05:26:12;;;;;;;2.95;2.75;;;17.20;63.50;;;;;;5055013;28;20669;-65
2021/11/20 05:28:38;;;;;;;3.08;2.85;;;17.20;63.40;;;;;;5054616;28;20199;-64
2021/11/20 05:31:04;;;;;;;2.75;2.50;;;17.20;63.40;;;;;;5054386;28;20171;-64
2021/11/20 05:33:32;;;;;;;2.97;2.72;;;17.20;63.40;;;;;;5054833;28;20173;-64
2021/11/20 05:35:58;;;;;;;3.08;2.80;;;17.20;63.40;;;;;;5054988;28;20175;-66
2021/11/20 05:38:24;;;;;;;3.15;2.85;;;17.20;63.40;;;;;;5054358;28;20584;-63
2021/11/20 05:40:49;;;;;;;3.00;2.80;;;17.20;63.30;;;;;;5054461;28;20176;-64
2021/11/20 05:43:17;;;;;;;2.75;2.55;;;17.20;63.40;;;;;;5054772;28;20171;-64
2021/11/20 05:45:46;;;;;;;3.25;2.95;;;17.20;63.40;;;;;;5053460;28;20264;-64
2021/11/20 05:48:11;;;;;;;3.10;2.90;;;17.20;63.40;;;;;;5055022;28;20179;-63
2021/11/20 05:50:37;;;;;;;2.67;2.47;;;17.20;63.30;;;;;;5054708;28;20237;-65
2021/11/20 05:53:08;;;;;;;3.05;2.83;;;17.20;63.40;;;;;;5054011;28;20182;-66
2021/11/20 05:55:33;;;;;;;2.78;2.58;;;17.20;63.40;;;;;;5054287;28;20179;-67
2021/11/20 05:57:59;;;;;;;3.17;2.90;;;17.20;63.30;;;;;;5053827;28;20167;-67
2021/11/20 06:00:27;;;;;;;3.00;2.80;;;17.20;63.40;;;;;;5054866;28;20795;-65
2021/11/20 06:02:54;;;;;;;3.03;2.75;;;17.20;63.40;;;;;;5054181;28;20186;-63
2021/11/20 06:05:19;;;;;;;3.45;3.13;;;17.20;63.30;;;;;;5053603;28;20541;-62
2021/11/20 06:07:45;;;;;;;3.92;2.75;;;17.20;63.30;;;;;;5053876;28;20653;-65
2021/11/20 06:10:11;;;;;;;3.28;3.03;;;17.20;63.30;;;;;;5054005;28;20643;-66
2021/11/20 06:12:36;;;;;;;3.00;2.78;;;17.10;63.30;;;;;;5053037;28;20197;-66
2021/11/20 06:15:02;;;;;;;3.15;2.92;;;17.10;63.20;;;;;;5054110;28;20580;-66
2021/11/20 06:17:28;;;;;;;4.07;3.40;;;17.20;63.30;;;;;;5054549;28;20269;-65
2021/11/20 06:19:53;;;;;;;2.78;2.58;;;17.20;63.30;;;;;;5053105;28;20259;-65
2021/11/20 06:22:20;;;;;;;3.45;3.15;;;17.10;63.20;;;;;;5054054;28;20197;-65
2021/11/20 06:24:46;;;;;;;3.75;3.22;;;17.10;63.20;;;;;;5053783;28;20179;-65
2021/11/20 06:27:12;;;;;;;3.40;3.10;;;17.10;63.20;;;;;;5053220;28;20265;-64
2021/11/20 06:29:37;;;;;;;3.30;2.72;;;17.10;63.20;;;;;;5053551;28;20218;-63
2021/11/20 06:32:03;;;;;;;3.72;3.42;;;17.10;63.30;;;;;;5054053;28;20182;-64
2021/11/20 06:34:28;;;;;;;3.42;3.13;;;17.10;63.30;;;;;;5053059;28;20209;-62
2021/11/20 06:36:54;;;;;;;3.45;3.05;;;17.10;63.30;;;;;;5053991;28;20175;-65
2021/11/20 06:39:19;;;;;;;3.40;3.10;;;17.10;63.30;;;;;;5053754;28;20178;-63
2021/11/20 06:41:45;;;;;;;3.33;3.03;;;17.10;63.20;;;;;;5052659;28;20533;-65
2021/11/20 06:44:11;;;;;;;3.20;2.90;;;17.10;63.30;;;;;;5053631;28;20179;-63
2021/11/20 06:46:36;;;;;;;3.50;3.20;;;17.10;63.30;;;;;;5053049;28;20338;-63
2021/11/20 06:49:02;;;;;;;3.72;3.42;;;17.10;63.30;;;;;;5052937;28;20286;-65
2021/11/20 06:51:28;;;;;;;3.50;3.20;;;17.20;63.30;;;;;;5053663;28;20171;-65
2021/11/20 06:53:53;;;;;;;4.47;3.50;;;17.10;63.20;;;;;;5053413;28;20707;-66
2021/11/20 06:56:27;;;;;;;3.80;3.50;;;17.10;63.20;;;;;;5052625;28;20531;-65
2021/11/20 07:01:31;;;;;;;3.60;3.30;;;17.10;63.30;;;;;;5052698;28;20175;-63
2021/11/20 07:03:58;;;;;;;3.97;3.58;;;17.10;63.20;;;;;;5052027;28;20175;-64
2021/11/20 07:06:27;;;;;;;3.53;3.22;;;17.10;63.30;;;;;;5052133;28;20563;-63
2021/11/20 07:08:53;;;;;;;3.38;3.10;;;17.10;63.30;;;;;;5050852;28;20213;-65
2021/11/20 07:11:19;;;;;;;3.60;3.30;;;17.10;63.30;;;;;;5053027;28;20396;-66
2021/11/20 07:13:44;;;;;;;3.17;2.88;;;17.10;63.30;;;;;;5052892;28;20639;-67
2021/11/20 07:16:12;;;;;;;3.67;3.38;;;17.10;63.30;;;;;;5052539;28;20183;-66
2021/11/20 07:18:38;;;;;;;3.65;3.35;;;17.10;63.30;;;;;;5052764;28;20236;-65
2021/11/20 07:21:03;;;;;;;3.42;3.13;;;17.00;63.10;;;;;;5053091;28;20262;-66
2021/11/20 07:23:29;;;;;;;3.63;3.33;;;17.00;63.20;;;;;;5051633;28;20179;-65
2021/11/20 07:25:56;;;;;;;3.72;3.40;;;17.10;63.30;;;;;;5053092;28;20634;-66
2021/11/20 07:28:21;;;;;;;3.38;3.10;;;17.00;64.00;;;;;;5052354;28;20510;-65
2021/11/20 07:30:47;;;;;;;3.60;3.30;;;17.00;63.20;;;;;;5051723;28;20174;-64
2021/11/20 07:33:12;;;;;;;4.13;3.72;;;17.00;63.20;;;;;;5052695;28;20625;-64
2021/11/20 07:35:52;;;;;;;2.90;2.70;;;17.00;63.20;;;;;;5052296;28;20211;-64
2021/11/20 07:38:24;;;;;;;3.15;2.90;;;17.00;63.30;;;;;;5051957;28;20189;-64
2021/11/20 07:40:50;;;;;;;3.15;2.85;;;17.10;63.40;;;;;;5052490;28;20275;-65
2021/11/20 07:43:15;;;;;;;3.50;3.20;;;17.10;63.40;;;;;;5052505;28;20224;-63
2021/11/20 07:45:41;;;;;;;3.70;3.38;;;17.20;63.50;;;;;;5051187;28;20223;-65
2021/11/20 07:48:11;;;;;;;2.83;2.63;;;17.20;63.30;;;;;;5052391;28;20182;-64
2021/11/20 07:50:37;;;;;;;3.30;3.00;;;17.30;63.10;;;;;;5051369;28;20210;-66
2021/11/20 07:53:03;;;;;;;3.33;2.78;;;17.40;62.90;;;;;;5052549;28;20179;-71
2021/11/20 07:55:28;;;;;;;2.92;2.60;;;17.50;63.20;;;;;;5052144;28;20217;-73
2021/11/20 07:57:54;;;;;;;2.60;2.40;;;17.60;62.60;;;;;;5051781;28;20171;-66
2021/11/20 08:00:20;;;;;;;3.92;3.03;;;17.80;62.50;;;;;;5051820;28;20634;-72
2021/11/20 08:02:46;;;;;;;4.55;2.58;;;18.00;62.40;;;;;;5053457;28;20214;-73
2021/11/20 08:05:11;;;;;;;2.53;2.28;;;18.10;62.00;;;;;;5051299;28;20171;-72
2021/11/20 08:07:37;;;;;;;2.72;2.47;;;18.20;61.80;;;;;;5051881;28;20240;-72
2021/11/20 08:10:10;;;;;;;2.75;2.55;;;18.30;61.50;;;;;;5059830;28;20202;-71
2021/11/20 08:12:35;;;;;;;3.00;2.80;;;18.40;61.20;;;;;;5052299;28;20190;-71
2021/11/20 08:15:01;;;;;;;3.63;2.80;;;18.50;61.10;;;;;;5052034;28;20641;-71
2021/11/20 08:17:27;;;;;;;2.75;2.50;;;18.60;60.40;;;;;;5051918;28;20178;-72
2021/11/20 08:19:53;;;;;;;3.03;2.33;;;18.70;60.10;;;;;;5061087;28;20175;-69
2021/11/20 08:22:19;;;;;;;2.67;2.20;;;18.80;59.90;;;;;;5051953;28;20209;-71
2021/11/20 08:24:45;;;;;;;3.53;2.60;;;18.80;59.80;;;;;;5051676;28;20236;-70
2021/11/20 08:27:10;;;;;;;2.80;2.45;;;18.80;59.80;;;;;;5051261;28;20349;-72
2021/11/20 08:29:37;;;;;;;2.67;2.15;;;18.70;59.80;;;;;;5051413;28;20219;-72
2021/11/20 08:32:04;;;;;;;2.50;2.30;;;18.70;60.80;;;;;;5051823;28;20202;-72
2021/11/20 08:34:30;;;;;;;3.38;2.85;;;18.60;60.10;;;;;;5050420;28;20254;-73
2021/11/20 08:36:56;;;;;;;3.00;2.78;;;18.50;60.20;;;;;;5061984;28;20632;-72
2021/11/20 08:39:21;;;;;;;2.67;2.47;;;18.50;60.50;;;;;;5051558;28;20175;-72
2021/11/20 08:41:47;;;;;;;3.30;3.00;;;18.40;60.60;;;;;;5054651;28;20257;-72
2021/11/20 08:44:12;;;;;;;3.17;2.88;;;18.40;60.90;;;;;;5055846;28;20205;-71
2021/11/20 08:46:39;;;;;;;3.70;3.38;;;18.30;61.10;;;;;;5055003;28;20275;-72
2021/11/20 08:49:04;;;;;;;3.53;3.17;;;18.20;61.20;;;;;;5055533;28;20221;-72
2021/11/20 08:51:30;;;;;;;3.78;3.45;;;18.10;61.40;;;;;;5055424;28;20167;-72
2021/11/20 08:53:55;;;;;;;3.58;3.28;;;18.10;61.50;;;;;;5055016;28;20200;-72
2021/11/20 08:56:21;;;;;;;3.10;2.83;;;18.10;61.70;;;;;;5055953;28;20167;-72
2021/11/20 08:58:47;;;;;;;3.05;2.85;;;18.00;61.80;;;;;;5055057;28;20606;-72
2021/11/20 09:01:28;;;;;;;3.17;2.80;;;17.90;61.80;;;;;;5054665;28;20200;-71
2021/11/20 09:04:07;;;;;;;3.63;3.33;;;17.90;61.90;;;;;;5055742;28;20177;-72
2021/11/20 09:06:39;;;;;;;3.35;3.05;;;17.80;61.70;;;;;;5055100;28;20270;-72
2021/11/20 09:09:27;;;;;;;4.07;3.67;;;17.80;62.00;;;;;;5056618;28;20218;-70
2021/11/20 09:11:57;;;;;;;3.28;2.97;;;17.80;62.20;;;;;;5059727;28;20182;-69
2021/11/20 09:14:27;;;;;;;4.00;3.60;;;17.80;62.20;;;;;;5055130;28;20179;-71
2021/11/20 09:16:58;;;;;;;3.55;3.25;;;17.70;62.20;;;;;;5053621;28;20216;-71
2021/11/20 09:19:26;;;;;;;4.07;3.67;;;17.70;62.40;;;;;;5055246;28;20175;-71
2021/11/20 09:21:52;;;;;;;3.90;3.60;;;17.70;62.40;;;;;;5054053;28;20540;-70
2021/11/20 09:24:17;;;;;;;4.47;3.90;;;17.70;62.40;;;;;;5054878;28;20171;-69
2021/11/20 09:26:43;;;;;;;3.83;3.53;;;17.70;62.40;;;;;;5054780;28;20182;-70
2021/11/20 09:29:11;;;;;;;4.20;3.90;;;17.80;62.30;;;;;;5054450;28;20225;-71
2021/11/20 09:31:37;;;;;;;3.88;3.50;;;17.80;62.20;;;;;;5055005;28;20208;-73
2021/11/20 09:34:02;;;;;;;3.83;3.45;;;17.80;62.20;;;;;;5055274;28;20175;-73
2021/11/20 09:36:28;;;;;;;4.32;4.03;;;17.80;62.00;;;;;;5054238;28;20270;-72
2021/11/20 09:38:54;;;;;;;4.13;3.72;;;17.80;62.00;;;;;;5054899;28;20194;-72
2021/11/20 09:41:22;;;;;;;4.13;3.72;;;17.80;61.90;;;;;;5054687;28;20618;-72
2021/11/20 09:43:52;;;;;;;4.50;4.10;;;17.70;61.90;;;;;;5052614;28;20250;-71
2021/11/20 09:46:27;;;;;;;4.60;4.20;;;17.80;62.00;;;;;;5054726;28;20231;-72
2021/11/20 09:49:15;;;;;;;4.13;3.83;;;17.70;61.90;;;;;;5054309;28;20221;-70
2021/11/20 09:51:43;;;;;;;4.90;4.40;;;17.70;62.10;;;;;;5052802;28;20234;-73
2021/11/20 09:54:24;;;;;;;4.97;4.53;;;17.70;62.00;;;;;;5054664;28;20179;-69
2021/11/20 09:57:21;;;;;;;4.80;4.40;;;17.70;62.10;;;;;;5054183;28;20179;-69
2021/11/20 10:00:05;;;;;;;4.45;4.07;;;17.70;63.00;;;;;;5053869;28;20544;-70
2021/11/20 10:02:45;;;;;;;4.70;4.30;;;17.70;62.60;;;;;;5054338;28;20175;-71
2021/11/20 10:05:10;;;;;;;4.20;3.80;;;17.70;62.60;;;;;;5053817;28;20175;-68
2021/11/20 10:07:37;;;;;;;4.80;4.40;;;17.70;62.60;;;;;;5054082;28;20229;-69
2021/11/20 10:10:18;;;;;;;4.80;4.35;;;17.70;62.70;;;;;;5064724;28;20301;-71
2021/11/20 10:12:48;;;;;;;5.05;4.13;;;17.70;62.80;;;;;;5033447;28;20633;-73
2021/11/20 10:15:22;;;;;;;4.70;3.65;;;17.80;63.00;;;;;;5034372;28;20180;-73
2021/11/20 10:17:54;;;;;;;4.97;3.78;;;17.80;62.80;;;;;;5034237;28;20330;-72
2021/11/20 10:20:46;;;;;;;4.78;3.70;;;17.90;62.80;;;;;;5033390;28;20266;-73
2021/11/20 10:23:36;;;;;;;4.25;3.88;;;18.00;62.70;;;;;;5034145;28;20179;-72
2021/11/20 10:26:33;;;;;;;6.25;3.78;;;18.20;62.40;;;;;;5032049;28;20183;-72
2021/11/20 10:29:17;;;;;;;3.95;3.65;;;18.30;62.00;;;;;;5032879;28;20212;-73
2021/11/20 10:31:49;;;;;;;4.03;3.72;;;18.50;61.60;;;;;;5033685;28;20206;-74
2021/11/20 10:34:25;;;;;;;3.78;3.47;;;18.60;61.40;;;;;;5033385;28;20206;-73
2021/11/20 10:36:54;;;;;;;4.15;3.63;;;18.70;61.00;;;;;;5032319;28;20178;-72
2021/11/20 10:39:32;;;;;;;3.80;3.40;;;18.80;60.80;;;;;;5032901;28;20545;-74
2021/11/20 10:42:18;;;;;;;3.20;2.90;;;18.90;60.60;;;;;;5033638;28;20577;-72
2021/11/20 10:44:53;;;;;;;3.90;3.45;;;19.10;60.20;;;;;;5033349;28;20627;-72
2021/11/20 10:47:18;;;;;;;3.63;3.33;;;19.20;59.60;;;;;;5032983;28;20183;-72
2021/11/20 10:50:21;;;;;;;3.38;3.05;;;19.40;59.60;;;;;;5033090;28;20218;-72
2021/11/20 10:53:17;;;;;;;4.13;3.80;;;19.40;59.40;;;;;;5033242;28;20269;-73
2021/11/20 10:56:19;;;;;;;3.40;3.10;;;19.50;59.40;;;;;;5033140;28;20649;-73
2021/11/20 10:58:59;;;;;;;4.38;3.33;;;19.40;59.40;;;;;;5033016;28;20218;-72
2021/11/20 11:01:52;;;;;;;3.38;3.08;;;19.40;59.40;;;;;;5031492;28;20179;-73
2021/11/20 11:04:36;;;;;;;3.65;3.35;;;19.30;59.70;;;;;;5031440;28;20164;-72
2021/11/20 11:07:23;;;;;;;4.22;3.80;;;19.20;59.80;;;;;;5032454;28;20176;-75
2021/11/20 11:09:51;;;;;;;3.45;3.15;;;19.10;60.20;;;;;;5049914;28;20214;-72
2021/11/20 11:12:43;;;;;;;3.53;3.22;;;19.10;60.40;;;;;;5054398;28;20219;-72
2021/11/20 11:15:17;;;;;;;3.83;3.53;;;19.00;60.50;;;;;;5051083;28;20176;-73
2021/11/20 11:17:58;;;;;;;3.72;3.40;;;18.90;60.80;;;;;;5051725;28;20225;-72
2021/11/20 11:20:23;;;;;;;3.95;3.55;;;18.80;61.00;;;;;;5051504;28;20657;-72
2021/11/20 11:22:56;;;;;;;4.38;3.97;;;18.80;61.10;;;;;;5051858;28;20179;-72
2021/11/20 11:25:23;;;;;;;3.85;3.33;;;18.70;61.10;;;;;;5051438;28;20206;-72
2021/11/20 11:28:26;;;;;;;3.92;3.63;;;18.70;61.30;;;;;;5051740;28;20681;-72
2021/11/20 11:31:09;;;;;;;3.95;3.65;;;18.70;61.50;;;;;;5052093;28;20573;-72
2021/11/20 11:33:37;;;;;;;4.32;3.75;;;18.60;61.60;;;;;;5051143;28;20174;-72
2021/11/20 11:36:34;;;;;;;3.88;3.50;;;18.60;61.70;;;;;;5050945;28;20258;-74
2021/11/20 11:39:24;;;;;;;4.03;3.65;;;18.50;61.90;;;;;;5051414;28;20183;-66
2021/11/20 11:42:11;;;;;;;4.50;4.10;;;18.50;61.80;;;;;;5052244;28;20179;-71
2021/11/20 11:44:55;;;;;;;5.97;4.15;;;18.50;61.80;;;;;;5050504;28;20292;-65
2021/11/20 11:47:30;;;;;;;8.13;3.85;;;18.60;62.00;;;;;;5052525;28;20198;-64
2021/11/20 11:49:59;;;;;;;5.43;4.10;;;18.50;62.00;;;;;;5051658;28;20261;-64
2021/11/20 11:52:30;;;;;;;4.72;4.20;;;18.50;62.20;;;;;;5052024;28;20568;-65
2021/11/20 11:55:14;;;;;;;5.13;4.10;;;18.50;62.20;;;;;;5052566;28;20175;-64
2021/11/20 11:57:45;;;;;;;4.78;3.38;;;18.40;62.40;;;;;;5051506;28;20170;-72
2021/11/20 12:00:28;;;;;;;4.65;4.07;;;18.40;62.60;;;;;;5052533;28;20206;-73
2021/11/20 12:02:55;;;;;;;3.78;3.28;;;18.40;62.50;;;;;;5052286;28;20638;-73
2021/11/20 12:05:36;;;;;;;10.35;4.20;;;18.40;62.60;;;;;;5051797;28;20179;-71
2021/11/20 12:08:45;;;;;;;4.57;3.85;;;18.50;62.40;;;;;;5052571;28;20656;-71
2021/11/20 12:11:12;;;;;;;4.15;3.78;;;18.60;62.00;;;;;;5060568;28;20202;-71
2021/11/20 12:14:07;;;;;;;4.78;4.10;;;18.60;61.80;;;;;;5051827;28;20211;-66
2021/11/20 12:17:04;;;;;;;6.40;4.32;;;18.60;61.70;;;;;;5043429;28;20182;-70
2021/11/20 12:19:50;;;;;;;5.72;3.83;;;18.60;62.00;;;;;;5050903;28;20182;-70
2021/11/20 12:22:34;;;;;;;4.47;4.07;;;18.60;62.20;;;;;;5051297;28;20175;-70
2021/11/20 12:25:27;;;;;;;5.18;4.43;;;18.50;63.10;;;;;;5050438;28;20746;-64
2021/11/20 12:27:55;;;;;;;7.18;4.32;;;18.50;62.20;;;;;;5050360;28;20179;-72
2021/11/20 12:30:34;;;;;;;7.65;4.82;;;18.40;62.60;;;;;;5034464;28;20232;-68
2021/11/20 12:33:11;;;;;;;6.30;4.55;;;18.40;62.70;;;;;;5050141;28;20175;-68
2021/11/20 12:36:09;;;;;;;6.28;4.80;;;18.40;62.80;;;;;;5051343;28;20193;-69
2021/11/20 12:38:55;;;;;;;9.65;4.72;;;18.40;62.70;;;;;;5036662;28;20241;-68
2021/11/20 12:41:42;;;;;;;5.95;4.53;;;18.40;62.70;;;;;;5050715;28;20179;-69
2021/11/20 12:44:28;;;;;;;8.60;4.38;;;18.30;62.70;;;;;;5035919;28;20166;-69
2021/11/20 12:47:07;;;;;;;5.78;4.57;;;18.30;62.80;;;;;;5049519;28;20233;-69
2021/11/20 12:49:42;;;;;;;4.97;4.45;;;18.30;62.90;;;;;;5050027;28;20219;-70
2021/11/20 12:52:48;;;;;;;5.80;4.63;;;18.30;62.90;;;;;;5051680;28;20167;-71
2021/11/20 12:55:34;;;;;;;5.72;4.40;;;18.20;63.80;;;;;;5041296;28;20191;-72
2021/11/20 12:58:23;;;;;;;7.97;4.60;;;18.20;62.90;;;;;;5051714;28;20169;-72
2021/11/20 13:00:53;;;;;;;9.88;4.70;;;18.20;62.80;;;;;;5050634;28;20631;-70
2021/11/20 13:03:37;;;;;;;5.43;4.30;;;18.30;62.80;;;;;;5051608;28;20193;-70
2021/11/20 13:06:08;;;;;;;5.13;4.45;;;18.30;62.60;;;;;;5051322;28;20243;-70
2021/11/20 13:08:38;;;;;;;6.85;4.80;;;18.30;63.40;;;;;;5049243;28;20232;-70
2021/11/20 13:11:09;;;;;;;6.32;4.38;;;18.30;62.50;;;;;;5060600;28;20189;-71